Time;durP1;ratioP1;P1;durP2;ratioP2;P2;SDS_P1;SDS_P2;PMS_P1;PMS_P2;Temp;Humidity;BMP_temperature;BMP_pressure;BME280_temperature;BME280_humidity;BME280_pressure;Samples;Min_cycle;Max_cycle;Signal;HPM_P1;HPM_P2
2022/06/25 00:00:23;;;;;;;4.70;3.22;;;;;;;19.54;61.70;101277.41;10487989;28;20044;-81
2022/06/25 00:05:29;;;;;;;6.03;3.05;;;;;;;19.61;61.74;101274.13;10487704;28;20118;-82
2022/06/25 00:10:32;;;;;;;6.50;3.55;;;;;;;19.63;61.68;101277.41;10488386;28;20041;-82
2022/06/25 00:15:34;;;;;;;6.75;3.35;;;;;;;19.55;61.82;101281.81;10487920;28;20076;-81
2022/06/25 00:20:37;;;;;;;4.00;3.10;;;;;;;19.49;62.22;101274.75;10482562;28;20064;-82
2022/06/25 00:25:39;;;;;;;3.88;2.95;;;;;;;19.52;62.49;101276.06;10487733;28;20139;-82
2022/06/25 00:30:42;;;;;;;4.38;3.10;;;;;;;19.62;62.00;101280.53;10463911;28;20412;-81
2022/06/25 00:35:44;;;;;;;5.13;3.00;;;;;;;19.70;61.90;101279.69;10460511;28;20048;-82
2022/06/25 00:40:47;;;;;;;7.05;3.13;;;;;;;19.75;61.95;101287.88;10487173;28;20059;-82
2022/06/25 00:45:49;;;;;;;7.07;2.95;;;;;;;19.76;61.83;101289.53;10486121;28;20049;-82
2022/06/25 00:50:57;;;;;;;3.25;2.72;;;;;;;19.79;61.56;101297.25;10486964;28;20060;-82
2022/06/25 00:56:00;;;;;;;4.32;2.80;;;;;;;19.76;61.68;101298.69;10484568;28;20053;-82
2022/06/25 01:01:04;;;;;;;5.30;2.83;;;;;;;19.84;61.71;101300.69;10468743;28;20040;-81
2022/06/25 01:06:06;;;;;;;4.05;2.75;;;;;;;19.90;61.33;101303.28;10479796;28;20041;-82
2022/06/25 01:11:11;;;;;;;3.65;2.72;;;;;;;19.88;61.66;101306.41;10486325;28;20052;-82
2022/06/25 01:16:13;;;;;;;5.50;3.22;;;;;;;19.91;61.85;101308.53;10444912;28;20046;-82
2022/06/25 01:21:16;;;;;;;5.00;3.10;;;;;;;19.95;61.71;101312.28;10428075;28;20048;-82
2022/06/25 01:26:18;;;;;;;4.80;3.22;;;;;;;19.93;62.67;101311.81;10439726;28;20049;-82
2022/06/25 01:31:20;;;;;;;5.32;3.40;;;;;;;19.94;62.51;101313.44;10485636;28;20041;-82
2022/06/25 01:36:23;;;;;;;6.70;3.42;;;;;;;19.95;63.17;101330.97;10454054;28;20518;-82
2022/06/25 01:41:26;;;;;;;5.82;3.90;;;;;;;19.91;63.55;101336.38;10469868;28;20049;-82
2022/06/25 01:46:28;;;;;;;5.90;3.47;;;;;;;19.87;63.90;101335.41;10486545;28;20049;-82
2022/06/25 01:51:30;;;;;;;4.65;3.70;;;;;;;19.89;63.75;101333.13;10494094;28;20057;-82
2022/06/25 01:56:33;;;;;;;6.57;3.72;;;;;;;20.00;64.20;101331.66;10493493;28;20033;-80
2022/06/25 02:01:35;;;;;;;5.47;3.72;;;;;;;20.14;64.37;101343.44;10462780;28;20044;-82
2022/06/25 02:06:37;;;;;;;6.20;3.58;;;;;;;20.12;64.47;101339.34;10491126;28;20041;-81
2022/06/25 02:11:40;;;;;;;5.95;3.55;;;;;;;20.02;65.30;101342.47;10466805;28;20041;-78
2022/06/25 02:16:42;;;;;;;8.50;3.40;;;;;;;20.00;65.52;101342.78;10463824;28;20048;-82
2022/06/25 02:21:44;;;;;;;10.18;3.63;;;;;;;20.05;65.88;101350.97;10446096;28;20041;-82
2022/06/25 02:26:46;;;;;;;9.13;3.50;;;;;;;20.14;64.88;101351.81;10469000;28;20040;-82
2022/06/25 02:31:49;;;;;;;3.95;2.88;;;;;;;20.30;64.43;101349.31;10473180;28;20443;-82
2022/06/25 02:36:52;;;;;;;4.20;2.55;;;;;;;20.37;64.32;101354.41;10484262;28;20037;-84
2022/06/25 02:41:56;;;;;;;3.90;2.47;;;;;;;20.62;63.26;101353.56;10423690;28;20443;-83
2022/06/25 02:46:59;;;;;;;5.22;2.63;;;;;;;20.94;62.26;101359.72;10472793;28;20049;-83
2022/06/25 02:52:08;;;;;;;3.03;1.95;;;;;;;21.13;60.65;101365.69;10438806;28;20076;-83
2022/06/25 03:02:32;;;;;;;2.63;2.17;;;;;;;21.80;59.36;101362.06;10462110;28;20033;-84
2022/06/25 03:07:34;;;;;;;2.50;1.83;;;;;;;22.31;57.05;101354.47;10474256;28;20049;-84
2022/06/25 03:12:36;;;;;;;3.03;2.17;;;;;;;22.25;56.78;101367.03;10482381;28;20053;-83
2022/06/25 03:17:52;;;;;;;2.50;1.95;;;;;;;22.34;56.14;101358.53;10471099;28;20049;-83
2022/06/25 03:23:22;;;;;;;1.80;1.58;;;;;;;22.77;55.17;101366.50;10467421;28;20511;-84
2022/06/25 03:28:28;;;;;;;3.13;1.63;;;;;;;23.22;54.26;101368.44;10484218;28;20048;-83
2022/06/25 03:33:32;;;;;;;2.38;1.88;;;;;;;23.48;52.86;101373.72;10462350;28;20526;-83
2022/06/25 03:39:01;;;;;;;2.10;1.70;;;;;;;24.00;51.32;101380.22;10431943;28;20057;-83
2022/06/25 03:44:09;;;;;;;2.50;1.63;;;;;;;24.02;52.37;101383.47;10444407;28;20067;-83
2022/06/25 03:49:13;;;;;;;3.72;1.80;;;;;;;24.09;51.50;101390.44;10467498;28;20044;-83
2022/06/25 03:54:35;;;;;;;2.90;1.90;;;;;;;24.31;51.05;101395.56;10450649;28;20056;-83
2022/06/25 04:00:06;;;;;;;3.83;1.45;;;;;;;24.63;49.44;101402.09;10460059;28;20040;-83
2022/06/25 04:05:14;;;;;;;2.85;1.75;;;;;;;25.23;47.12;101394.50;10481103;28;20033;-83
2022/06/25 04:10:18;;;;;;;2.58;1.65;;;;;;;25.36;46.49;101384.81;10450701;28;20521;-83
2022/06/25 04:15:21;;;;;;;4.03;1.80;;;;;;;25.45;45.76;101391.03;10450358;28;20060;-83
2022/06/25 04:20:23;;;;;;;1.48;1.35;;;;;;;25.65;45.56;101394.72;10461760;28;20501;-84
2022/06/25 04:25:26;;;;;;;3.08;1.75;;;;;;;25.91;45.37;101399.78;10467429;28;20037;-84
2022/06/25 04:30:29;;;;;;;3.65;1.92;;;;;;;26.35;45.42;101389.13;10454930;28;20041;-84
2022/06/25 04:35:32;;;;;;;2.58;1.73;;;;;;;26.73;43.49;101404.38;10457647;28;20037;-83
2022/06/25 04:40:40;;;;;;;1.80;1.65;;;;;;;27.17;42.66;101404.78;10424658;28;20056;-82
2022/06/25 04:45:43;;;;;;;2.47;1.83;;;;;;;27.44;42.61;101402.03;10441926;28;20039;-83
2022/06/25 04:50:59;;;;;;;2.33;1.70;;;;;;;27.68;40.95;101404.47;10446582;28;20038;-83
2022/06/25 04:56:01;;;;;;;2.22;1.67;;;;;;;28.01;40.59;101417.03;10481000;28;20037;-83
2022/06/25 05:01:05;;;;;;;4.57;2.00;;;;;;;28.23;39.67;101410.47;10464328;28;20124;-83
2022/06/25 05:06:08;;;;;;;3.70;1.52;;;;;;;28.31;38.52;101412.25;10450212;28;20056;-83
2022/06/25 05:11:11;;;;;;;2.90;1.55;;;;;;;28.44;38.64;101413.59;10478774;28;20053;-82
2022/06/25 05:16:13;;;;;;;3.15;1.80;;;;;;;28.61;38.21;101414.19;10468196;28;20056;-83
2022/06/25 05:21:15;;;;;;;2.40;1.90;;;;;;;28.70;38.87;101420.38;10470735;28;20044;-82
2022/06/25 05:26:18;;;;;;;3.85;2.17;;;;;;;29.16;37.74;101428.53;10474411;28;20450;-83
2022/06/25 05:31:21;;;;;;;3.15;2.15;;;;;;;29.25;38.53;101420.56;10461315;28;20044;-82
2022/06/25 05:36:23;;;;;;;3.38;2.30;;;;;;;29.59;37.39;101426.94;10491585;28;20057;-82
2022/06/25 05:41:26;;;;;;;2.92;2.03;;;;;;;29.69;37.68;101424.19;10482489;28;20045;-82
2022/06/25 05:46:28;;;;;;;2.75;1.92;;;;;;;29.92;36.94;101425.94;10468952;28;20054;-83
2022/06/25 05:51:30;;;;;;;2.08;1.80;;;;;;;30.10;36.87;101421.22;10450295;28;20041;-83
2022/06/25 05:56:33;;;;;;;2.85;2.10;;;;;;;29.98;36.80;101413.84;10474020;28;20044;-82
2022/06/25 06:01:35;;;;;;;2.13;1.92;;;;;;;30.09;37.07;101421.63;10441937;28;20053;-82
2022/06/25 06:06:38;;;;;;;3.13;1.90;;;;;;;30.40;36.81;101423.81;10492116;28;20041;-82
2022/06/25 06:11:40;;;;;;;2.45;2.13;;;;;;;30.23;37.16;101424.53;10490850;28;20048;-82
2022/06/25 06:16:42;;;;;;;6.22;1.95;;;;;;;30.58;37.76;101429.53;10478795;28;20388;-82
2022/06/25 06:21:45;;;;;;;5.18;2.33;;;;;;;30.80;37.12;101428.44;10472593;28;20045;-81
2022/06/25 06:26:47;;;;;;;3.63;2.10;;;;;;;30.71;37.36;101430.00;10482122;28;20037;-82
2022/06/25 06:31:49;;;;;;;2.13;1.90;;;;;;;30.46;37.38;101430.72;10474894;28;20055;-81
2022/06/25 06:36:51;;;;;;;2.95;1.90;;;;;;;30.26;37.29;101430.22;10489905;28;20048;-81
2022/06/25 06:41:54;;;;;;;2.38;1.50;;;;;;;30.63;36.36;101426.34;10481955;28;20048;-93
2022/06/25 06:46:56;;;;;;;3.65;1.73;;;;;;;30.82;36.07;101428.84;10488855;28;20049;-88
2022/06/25 06:51:58;;;;;;;2.70;1.52;;;;;;;31.05;35.48;101431.31;10483313;28;20064;-88
2022/06/25 06:57:01;;;;;;;2.80;1.70;;;;;;;31.02;35.41;101437.78;10484284;28;20048;-87
2022/06/25 07:02:04;;;;;;;4.07;1.70;;;;;;;31.02;35.43;101437.78;10454592;28;20044;-87
2022/06/25 07:07:06;;;;;;;1.88;1.35;;;;;;;31.35;34.88;101441.50;10474421;28;20045;-88
2022/06/25 07:12:08;;;;;;;2.10;1.70;;;;;;;31.45;35.02;101438.69;10470011;28;20443;-87
2022/06/25 07:17:11;;;;;;;3.33;1.73;;;;;;;31.70;34.64;101426.50;10483477;28;20044;-88
2022/06/25 07:22:13;;;;;;;3.28;1.80;;;;;;;31.86;34.39;101435.41;10479291;28;20036;-91
2022/06/25 07:27:15;;;;;;;3.40;1.77;;;;;;;31.70;34.55;101443.50;10472598;28;20443;-91
2022/06/25 07:32:17;;;;;;;1.90;1.60;;;;;;;31.70;34.27;101437.84;10487634;28;20052;-90
2022/06/25 07:37:20;;;;;;;2.70;1.70;;;;;;;31.73;33.97;101440.69;10479029;28;20072;-90
2022/06/25 07:42:22;;;;;;;1.70;1.60;;;;;;;31.26;34.94;101443.94;10486770;28;20041;-90
2022/06/25 07:47:24;;;;;;;2.42;1.67;;;;;;;31.14;34.82;101453.59;10481193;28;20416;-88
2022/06/25 07:52:27;;;;;;;2.00;1.60;;;;;;;31.18;34.47;101448.78;10475194;28;20092;-95
2022/06/25 07:57:29;;;;;;;2.28;1.65;;;;;;;30.89;34.73;101448.72;10484765;28;20056;-88
2022/06/25 08:02:32;;;;;;;2.22;1.95;;;;;;;30.49;35.16;101458.22;10449892;28;20041;-89
2022/06/25 08:07:34;;;;;;;2.22;1.98;;;;;;;30.25;36.32;101454.06;10456602;28;20052;-88
2022/06/25 08:12:36;;;;;;;1.75;1.65;;;;;;;30.70;35.51;101451.06;10486068;28;20060;-88
2022/06/25 08:17:39;;;;;;;2.25;1.73;;;;;;;30.67;35.58;101452.66;10425886;28;20057;-86
2022/06/25 08:22:41;;;;;;;2.45;1.92;;;;;;;30.69;35.70;101457.94;10478847;28;20499;-83
2022/06/25 08:27:53;;;;;;;2.92;1.67;;;;;;;30.60;35.61;101456.25;10452576;28;20044;-85
2022/06/25 08:32:56;;;;;;;3.30;1.73;;;;;;;30.64;35.84;101455.50;10478603;28;20053;-85
2022/06/25 08:37:58;;;;;;;3.10;1.58;;;;;;;30.67;35.47;101452.66;10469129;28;20043;-83
2022/06/25 08:43:01;;;;;;;2.08;1.67;;;;;;;30.69;35.42;101446.59;10476679;28;20056;-83
2022/06/25 08:48:10;;;;;;;2.08;1.90;;;;;;;30.72;35.41;101454.28;10452567;28;20049;-85
2022/06/25 08:53:13;;;;;;;3.33;2.03;;;;;;;30.43;35.94;101445.66;10474537;28;20057;-83
2022/06/25 08:58:15;;;;;;;2.95;1.88;;;;;;;30.37;36.40;101452.91;10452468;28;20041;-85
2022/06/25 09:03:18;;;;;;;3.95;1.98;;;;;;;30.23;36.50;101450.84;10483029;28;20051;-87
2022/06/25 09:08:20;;;;;;;3.17;1.80;;;;;;;30.08;36.54;101445.50;10449970;28;20508;-84
2022/06/25 09:13:27;;;;;;;2.75;1.65;;;;;;;30.13;36.75;101433.78;10436177;28;20076;-84
2022/06/25 09:18:32;;;;;;;3.17;2.05;;;;;;;30.07;36.53;101443.88;10462654;28;20091;-83
2022/06/25 09:24:00;;;;;;;5.03;2.13;;;;;;;29.84;37.58;101438.41;10483842;28;20428;-85
2022/06/25 09:29:03;;;;;;;4.78;2.17;;;;;;;29.42;37.91;101434.84;10465018;28;20044;-84
2022/06/25 09:34:08;;;;;;;2.65;2.20;;;;;;;28.94;39.20;101428.31;10447966;28;20056;-76
2022/06/25 09:39:10;;;;;;;5.00;2.70;;;;;;;28.58;39.37;101423.44;10479460;28;20057;-76
2022/06/25 09:44:18;;;;;;;4.47;2.20;;;;;;;28.55;40.52;101419.38;10483155;28;20049;-77
2022/06/25 09:49:25;;;;;;;3.22;1.98;;;;;;;28.42;40.07;101418.81;10482440;28;20049;-75
2022/06/25 09:54:27;;;;;;;2.55;2.30;;;;;;;28.12;41.45;101423.66;10482998;28;20037;-78
2022/06/25 09:59:31;;;;;;;3.25;2.50;;;;;;;28.00;41.83;101418.22;10475577;28;20055;-80
2022/06/25 10:04:34;;;;;;;7.03;3.30;;;;;;;27.96;42.35;101425.84;10439984;28;20037;-79
2022/06/25 10:09:39;;;;;;;3.10;2.28;;;;;;;27.83;42.04;101419.59;10486790;28;20041;-82
2022/06/25 10:14:42;;;;;;;3.92;2.70;;;;;;;27.92;42.22;101417.28;10458551;28;20049;-77
2022/06/25 10:19:46;;;;;;;2.40;2.20;;;;;;;27.91;42.17;101419.31;10492653;28;20056;-75
2022/06/25 10:24:48;;;;;;;3.33;2.75;;;;;;;27.78;41.36;101417.91;10469028;28;20052;-78
2022/06/25 10:30:00;;;;;;;7.78;2.67;;;;;;;27.87;41.63;101409.16;10491524;28;20041;-80
2022/06/25 10:35:02;;;;;;;2.90;2.15;;;;;;;27.88;41.41;101413.63;10489588;28;20543;-79
2022/06/25 10:40:07;;;;;;;2.85;2.60;;;;;;;27.90;41.54;101406.41;10486285;28;20041;-76
2022/06/25 10:45:10;;;;;;;4.75;2.90;;;;;;;27.93;40.48;101419.72;10487882;28;20088;-76
2022/06/25 10:50:21;;;;;;;3.30;2.63;;;;;;;27.93;40.65;101416.09;10488033;28;20045;-78
2022/06/25 10:55:24;;;;;;;3.00;2.70;;;;;;;27.81;40.58;101407.88;10447739;28;20143;-77
2022/06/25 11:00:53;;;;;;;5.03;2.72;;;;;;;27.78;41.13;101403.81;10485829;28;20051;-78
2022/06/25 11:06:00;;;;;;;4.18;2.90;;;;;;;27.75;40.50;101398.09;10481241;28;20044;-78
2022/06/25 11:11:03;;;;;;;4.13;2.40;;;;;;;27.76;41.00;101402.53;10488756;28;20057;-78
2022/06/25 11:16:12;;;;;;;4.43;2.38;;;;;;;27.77;40.79;101399.38;10486039;28;20051;-78
2022/06/25 11:21:37;;;;;;;5.53;2.95;;;;;;;27.86;40.54;101397.06;10480818;28;20404;-78
2022/06/25 11:32:01;;;;;;;2.67;2.38;;;;;;;27.78;39.59;101401.00;10463692;28;20041;-80
2022/06/25 11:37:09;;;;;;;4.82;2.58;;;;;;;27.80;40.51;101397.78;10493403;28;20036;-80
2022/06/25 11:42:12;;;;;;;3.15;2.80;;;;;;;27.80;41.38;101395.78;10490657;28;20048;-80
2022/06/25 11:47:22;;;;;;;2.75;2.10;;;;;;;27.92;40.92;101391.91;10491803;28;20526;-80
2022/06/25 11:52:25;;;;;;;4.70;2.42;;;;;;;28.04;40.41;101380.41;10489197;28;20511;-81
2022/06/25 11:57:28;;;;;;;3.33;2.80;;;;;;;28.14;40.75;101393.03;10487765;28;20037;-83
2022/06/25 12:02:30;;;;;;;2.72;2.30;;;;;;;28.10;40.29;101390.13;10471567;28;20508;-84
2022/06/25 12:07:33;;;;;;;3.67;2.80;;;;;;;28.09;41.09;101391.34;10488753;28;20415;-85
2022/06/25 12:12:37;;;;;;;3.63;2.40;;;;;;;28.12;40.55;101384.13;10476047;28;20056;-84
2022/06/25 12:17:40;;;;;;;5.53;2.45;;;;;;;28.08;40.55;101391.72;10436721;28;20532;-76
2022/06/25 12:22:46;;;;;;;2.35;2.10;;;;;;;27.99;39.95;101396.84;10432700;28;20045;-81
2022/06/25 12:27:50;;;;;;;2.97;2.67;;;;;;;27.98;40.42;101398.88;10418823;28;20040;-80
2022/06/25 12:32:53;;;;;;;5.55;2.47;;;;;;;27.93;40.30;101397.16;10430405;28;20053;-80
2022/06/25 12:38:09;;;;;;;2.55;2.35;;;;;;;27.93;40.90;101404.81;10445504;28;20501;-81
2022/06/25 12:43:13;;;;;;;3.07;2.50;;;;;;;27.99;41.27;101396.84;10444498;28;20057;-81
2022/06/25 12:48:27;;;;;;;3.47;2.60;;;;;;;28.07;40.36;101407.03;10445501;28;20076;-81
2022/06/25 12:53:29;;;;;;;3.33;2.60;;;;;;;28.17;40.90;101403.56;10454000;28;20049;-81
2022/06/25 12:58:36;;;;;;;4.30;2.85;;;;;;;28.23;40.36;101405.63;10430977;28;20049;-81
2022/06/25 13:03:38;;;;;;;5.03;2.67;;;;;;;28.28;40.62;101401.69;10427723;28;20053;-81
2022/06/25 13:08:41;;;;;;;3.63;2.67;;;;;;;28.27;40.58;101396.44;10451560;28;20033;-80
2022/06/25 13:13:43;;;;;;;5.68;3.30;;;;;;;28.15;41.20;101389.00;10454359;28;20052;-81
2022/06/25 13:18:45;;;;;;;3.70;2.45;;;;;;;28.16;41.01;101393.47;10448141;28;20045;-81
2022/06/25 13:23:48;;;;;;;3.53;2.63;;;;;;;28.17;40.76;101389.44;10443276;28;20050;-81
2022/06/25 13:28:51;;;;;;;4.65;3.03;;;;;;;28.16;41.38;101399.91;10444627;28;20053;-81
2022/06/25 13:33:53;;;;;;;4.15;2.85;;;;;;;28.12;41.52;101393.41;10445249;28;20053;-81
2022/06/25 13:38:55;;;;;;;5.85;3.13;;;;;;;28.07;41.41;101398.56;10439201;28;20042;-81
2022/06/25 13:43:59;;;;;;;3.70;3.33;;;;;;;28.00;40.71;101395.66;10447571;28;20046;-81
2022/06/25 13:49:01;;;;;;;3.33;2.80;;;;;;;27.93;41.27;101399.16;10452301;28;20041;-81
2022/06/25 13:54:03;;;;;;;3.95;2.88;;;;;;;27.98;41.92;101395.22;10434402;28;20504;-81
2022/06/25 13:59:06;;;;;;;4.10;3.67;;;;;;;27.91;41.93;101393.09;10451993;28;20052;-82
2022/06/25 14:04:08;;;;;;;3.58;2.95;;;;;;;27.78;41.18;101391.72;10434655;28;20503;-81
2022/06/25 14:09:12;;;;;;;6.00;3.33;;;;;;;27.80;41.64;101390.16;10455667;28;20041;-82
2022/06/25 14:14:14;;;;;;;3.50;3.20;;;;;;;27.74;41.97;101388.00;10436619;28;20052;-82
2022/06/25 14:19:16;;;;;;;4.90;3.22;;;;;;;27.70;41.55;101385.16;10451056;28;20047;-82
2022/06/25 14:25:20;;;;;;;5.53;3.50;;;;;;;27.68;41.15;101381.09;10450976;28;20049;-82
2022/06/25 14:29:41;;;;;;;4.93;3.63;;;;;;;27.64;41.42;101381.03;10450932;28;20415;-81
2022/06/25 14:34:43;;;;;;;5.55;3.70;;;;;;;27.57;40.84;101363.97;10449938;28;20570;-82
2022/06/25 14:45:06;;;;;;;4.10;3.08;;;;;;;27.65;40.26;101362.91;10450187;28;20055;-82
2022/06/25 14:50:10;;;;;;;4.13;3.40;;;;;;;27.73;40.65;101361.00;10450424;28;20053;-81
2022/06/25 14:55:13;;;;;;;4.10;3.00;;;;;;;27.68;40.29;101367.78;10448822;28;20053;-82
2022/06/25 15:00:15;;;;;;;4.05;2.58;;;;;;;27.68;39.96;101355.72;10449580;28;20072;-81
2022/06/25 15:05:19;;;;;;;6.40;3.47;;;;;;;27.67;39.69;101354.09;10450507;28;20065;-82
2022/06/25 15:10:22;;;;;;;3.63;3.17;;;;;;;27.63;39.32;101354.03;10448607;28;20060;-81
2022/06/25 15:15:24;;;;;;;5.10;3.47;;;;;;;27.58;39.54;101354.31;10464208;28;20049;-82
2022/06/25 15:20:26;;;;;;;4.90;4.18;;;;;;;27.56;39.52;101357.50;10491183;28;20047;-82
2022/06/25 15:25:28;;;;;;;4.68;3.17;;;;;;;27.57;39.83;101355.50;10473155;28;20431;-82
2022/06/25 15:30:31;;;;;;;3.20;2.88;;;;;;;27.56;39.79;101354.69;10490083;28;20037;-81
2022/06/25 15:35:37;;;;;;;3.83;3.15;;;;;;;27.54;38.84;101357.09;10490162;28;20060;-82
2022/06/25 15:40:39;;;;;;;5.30;3.70;;;;;;;27.51;38.52;101348.56;10488491;28;20041;-82
2022/06/25 15:45:41;;;;;;;5.40;2.97;;;;;;;27.47;38.74;101344.91;10446429;28;20053;-82
2022/06/25 15:50:44;;;;;;;5.05;3.50;;;;;;;27.42;38.99;101351.66;10447868;28;20049;-82
2022/06/25 15:55:46;;;;;;;5.88;4.43;;;;;;;27.37;40.29;101346.34;10447847;28;20053;-82
2022/06/25 16:00:48;;;;;;;3.75;3.38;;;;;;;27.28;41.17;101343.00;10447482;28;20045;-82
2022/06/25 16:05:50;;;;;;;4.72;3.75;;;;;;;27.13;41.80;101347.56;10446938;28;20049;-82
2022/06/25 16:10:53;;;;;;;5.00;3.95;;;;;;;27.07;42.37;101351.06;10429260;28;20058;-82
2022/06/25 16:15:55;;;;;;;4.63;3.53;;;;;;;26.92;43.63;101347.19;10451111;28;20412;-82
2022/06/25 16:20:57;;;;;;;7.15;4.60;;;;;;;26.79;43.14;101349.38;10446188;28;20056;-81
2022/06/25 16:26:00;;;;;;;9.30;4.50;;;;;;;26.73;43.81;101342.41;10446858;28;20064;-82
2022/06/25 16:31:05;;;;;;;9.98;4.47;;;;;;;26.72;42.58;101344.41;10445660;28;20045;-82
2022/06/25 16:36:07;;;;;;;9.60;3.50;;;;;;;26.65;42.13;101349.91;10429095;28;20048;-82
2022/06/25 16:41:11;;;;;;;9.55;3.90;;;;;;;26.59;40.89;101345.78;10427775;28;20048;-82
2022/06/25 16:46:14;;;;;;;6.25;3.35;;;;;;;26.55;40.94;101352.50;10469553;28;20051;-82
2022/06/25 16:51:18;;;;;;;4.03;3.08;;;;;;;26.58;41.42;101348.97;10487305;28;20055;-82
2022/06/25 16:56:21;;;;;;;5.35;3.72;;;;;;;26.58;42.02;101355.41;10469180;28;20053;-82
2022/06/25 17:01:23;;;;;;;6.65;3.72;;;;;;;26.53;42.13;101352.88;10486712;28;20455;-82
2022/06/25 17:06:27;;;;;;;9.32;3.72;;;;;;;26.51;40.80;101357.25;10487063;28;20621;-82
2022/06/25 17:11:30;;;;;;;7.78;4.18;;;;;;;26.42;40.52;101355.50;10486207;28;20037;-82
2022/06/25 17:16:33;;;;;;;8.43;3.75;;;;;;;26.37;39.88;101361.41;10440187;28;20052;-82
2022/06/25 17:21:35;;;;;;;9.88;3.80;;;;;;;26.32;39.44;101353.25;10447435;28;20061;-81
2022/06/25 17:26:37;;;;;;;6.15;3.90;;;;;;;26.24;37.76;101353.50;10454295;28;20049;-81
2022/06/25 17:31:39;;;;;;;5.75;3.85;;;;;;;26.17;36.74;101351.31;10443980;28;20052;-81
2022/06/25 17:36:42;;;;;;;8.15;5.50;;;;;;;26.08;36.27;101345.94;10444553;28;20070;-81
2022/06/25 17:41:44;;;;;;;5.25;3.67;;;;;;;26.05;35.77;101357.13;10444551;28;20057;-81
2022/06/25 17:46:46;;;;;;;11.25;4.00;;;;;;;26.00;35.94;101351.75;10444707;28;20049;-81
2022/06/25 17:51:49;;;;;;;4.32;3.25;;;;;;;25.98;36.26;101346.50;10444325;28;20048;-81
2022/06/25 17:56:51;;;;;;;4.63;3.03;;;;;;;25.85;35.80;101357.06;10426390;28;20650;-81
2022/06/25 18:01:54;;;;;;;7.97;3.58;;;;;;;25.82;35.87;101357.81;10426931;28;20057;-81
2022/06/25 18:06:57;;;;;;;4.57;3.65;;;;;;;25.79;36.58;101354.94;10426549;28;20044;-80
2022/06/25 18:11:59;;;;;;;3.70;3.10;;;;;;;25.74;36.71;101360.84;10444357;28;20069;-78
2022/06/25 18:17:02;;;;;;;4.97;2.67;;;;;;;25.67;36.91;101360.63;10427164;28;20045;-82
2022/06/25 18:22:04;;;;;;;3.05;2.75;;;;;;;25.55;36.84;101368.00;10455635;28;20040;-83
2022/06/25 18:27:06;;;;;;;5.80;3.83;;;;;;;25.47;36.77;101371.81;10484678;28;20044;-83
2022/06/25 18:32:08;;;;;;;7.10;4.35;;;;;;;25.37;37.56;101375.19;10490655;28;20052;-83
2022/06/25 18:37:11;;;;;;;6.25;3.40;;;;;;;25.30;37.81;101375.00;10474431;28;20048;-83
2022/06/25 18:42:13;;;;;;;7.07;3.75;;;;;;;25.19;37.99;101371.94;10472601;28;20067;-84
2022/06/25 18:47:16;;;;;;;5.35;4.10;;;;;;;25.14;38.36;101377.00;10491880;28;20067;-83
2022/06/25 18:52:18;;;;;;;7.15;4.22;;;;;;;25.10;38.67;101376.91;10492052;28;20127;-83
2022/06/25 18:57:20;;;;;;;5.00;3.20;;;;;;;25.07;39.13;101382.44;10487481;28;20044;-83
2022/06/25 19:02:23;;;;;;;4.28;3.20;;;;;;;25.02;38.80;101380.75;10487885;28;20067;-83
2022/06/25 19:07:25;;;;;;;4.63;3.08;;;;;;;24.91;39.40;101380.41;10491000;28;20048;-83
2022/06/25 19:12:28;;;;;;;7.55;3.42;;;;;;;24.81;40.53;101385.72;10473395;28;20037;-83
2022/06/25 19:17:30;;;;;;;7.32;3.38;;;;;;;24.72;40.27;101385.09;10491112;28;20060;-83
2022/06/25 19:22:34;;;;;;;5.93;3.33;;;;;;;24.63;40.38;101379.63;10490704;28;20071;-83
2022/06/25 19:27:36;;;;;;;5.22;3.13;;;;;;;24.51;41.08;101388.94;10490401;28;20530;-83
2022/06/25 19:32:39;;;;;;;5.45;3.38;;;;;;;24.39;41.06;101396.59;10472060;28;20049;-84
2022/06/25 19:37:41;;;;;;;4.13;3.13;;;;;;;24.36;41.69;101398.13;10490084;28;20053;-82
2022/06/25 19:42:45;;;;;;;5.07;3.50;;;;;;;24.32;41.80;101397.22;10488724;28;20048;-83
2022/06/25 19:47:48;;;;;;;4.20;2.97;;;;;;;24.30;42.63;101405.97;10489644;28;20510;-83
2022/06/25 19:52:50;;;;;;;4.53;3.08;;;;;;;24.25;42.67;101403.38;10489685;28;20075;-83
2022/06/25 19:57:52;;;;;;;3.85;3.08;;;;;;;24.16;43.56;101410.31;10489714;28;20047;-83
2022/06/25 20:02:54;;;;;;;4.10;3.00;;;;;;;24.10;43.32;101409.72;10489404;28;20057;-83
2022/06/25 20:07:57;;;;;;;4.90;3.60;;;;;;;24.00;44.04;101418.66;10490008;28;20057;-83
2022/06/25 20:12:59;;;;;;;5.80;3.50;;;;;;;23.85;44.23;101414.56;10489451;28;20060;-84
2022/06/25 20:18:01;;;;;;;4.40;3.15;;;;;;;23.66;44.35;101422.78;10472056;28;20056;-83
2022/06/25 20:23:04;;;;;;;3.92;3.22;;;;;;;23.48;45.61;101421.34;10489654;28;20063;-84
2022/06/25 20:28:07;;;;;;;5.85;3.60;;;;;;;23.35;46.13;101417.72;10488301;28;20045;-84
2022/06/25 20:33:09;;;;;;;4.22;3.70;;;;;;;23.24;46.34;101420.13;10469633;28;20052;-83
2022/06/25 20:38:11;;;;;;;8.82;4.75;;;;;;;23.16;47.22;101418.28;10469486;28;20044;-83
2022/06/25 20:43:13;;;;;;;9.52;4.60;;;;;;;23.18;47.43;101418.75;10472463;28;20060;-83
2022/06/25 20:48:16;;;;;;;6.80;3.90;;;;;;;23.14;47.82;101427.03;10446370;28;20038;-83
2022/06/25 20:53:20;;;;;;;5.53;3.00;;;;;;;23.08;48.44;101422.81;10427563;28;20049;-83
2022/06/25 20:58:22;;;;;;;4.88;3.53;;;;;;;23.03;48.63;101425.81;10447120;28;20059;-83
2022/06/25 21:08:45;;;;;;;10.02;6.30;;;;;;;22.83;49.62;101432.31;10427976;28;20037;-83
2022/06/25 21:13:48;;;;;;;7.45;5.13;;;;;;;22.72;50.09;101439.44;10427839;28;20071;-83
2022/06/25 21:18:51;;;;;;;8.27;4.50;;;;;;;22.68;50.44;101435.72;10427858;28;20084;-83
2022/06/25 21:23:53;;;;;;;6.88;4.20;;;;;;;22.62;50.87;101431.50;10427186;28;20053;-83
2022/06/25 21:28:55;;;;;;;5.38;3.83;;;;;;;22.68;50.54;101430.94;10456470;28;20056;-82
2022/06/25 21:33:57;;;;;;;5.72;4.10;;;;;;;22.73;51.29;101433.50;10485043;28;20037;-80
2022/06/25 21:39:00;;;;;;;5.82;4.10;;;;;;;22.67;51.81;101429.28;10486000;28;20057;-80
2022/06/25 21:44:02;;;;;;;6.72;4.57;;;;;;;22.62;51.64;101437.91;10450730;28;20041;-83
2022/06/25 21:49:04;;;;;;;9.43;4.72;;;;;;;22.55;52.18;101438.44;10484281;28;20042;-83
2022/06/25 21:54:07;;;;;;;10.00;6.30;;;;;;;22.51;52.37;101436.69;10483077;28;20210;-83
2022/06/25 21:59:10;;;;;;;11.18;5.70;;;;;;;22.45;52.46;101443.66;10484023;28;20036;-81
2022/06/25 22:04:12;;;;;;;10.18;6.75;;;;;;;22.41;53.42;101443.53;10468798;28;20412;-81
2022/06/25 22:09:14;;;;;;;11.82;7.50;;;;;;;22.50;52.92;101440.66;10492560;28;20033;-81
2022/06/25 22:14:16;;;;;;;8.93;6.78;;;;;;;22.49;53.37;101445.44;10492473;28;20427;-82
2022/06/25 22:19:19;;;;;;;9.63;7.38;;;;;;;22.41;54.49;101451.91;10491776;28;20045;-82
2022/06/25 22:24:21;;;;;;;8.73;6.30;;;;;;;22.25;54.47;101454.50;10492069;28;20045;-82
2022/06/25 22:29:23;;;;;;;11.93;6.50;;;;;;;22.12;54.89;101454.78;10492645;28;20041;-81
2022/06/25 22:34:25;;;;;;;8.02;5.65;;;;;;;22.06;55.47;101453.34;10491258;28;20493;-82
2022/06/25 22:39:28;;;;;;;7.68;5.47;;;;;;;22.05;55.66;101446.94;10492201;28;20191;-82
2022/06/25 22:44:30;;;;;;;7.93;4.80;;;;;;;22.05;55.45;101460.09;10490974;28;20036;-82
2022/06/25 22:49:32;;;;;;;4.55;3.95;;;;;;;21.91;56.28;101458.31;10449810;28;20064;-82
2022/06/25 22:54:35;;;;;;;8.10;4.13;;;;;;;21.84;56.37;101469.19;10459015;28;20148;-82
2022/06/25 22:59:37;;;;;;;5.13;4.57;;;;;;;21.75;57.20;101471.25;10483127;28;20048;-82
2022/06/25 23:04:39;;;;;;;5.53;3.97;;;;;;;21.77;57.32;101473.69;10474789;28;20059;-82
2022/06/25 23:09:42;;;;;;;7.00;4.50;;;;;;;21.76;57.49;101469.25;10491042;28;20056;-83
2022/06/25 23:14:44;;;;;;;7.18;4.28;;;;;;;21.81;56.82;101483.03;10472629;28;20404;-82
2022/06/25 23:19:46;;;;;;;6.18;4.78;;;;;;;21.87;57.03;101485.31;10490302;28;20045;-81
2022/06/25 23:24:49;;;;;;;4.35;3.58;;;;;;;21.79;57.49;101488.97;10490017;28;20041;-82
2022/06/25 23:29:51;;;;;;;5.07;3.90;;;;;;;21.73;58.25;101495.91;10490083;28;20045;-82
2022/06/25 23:34:55;;;;;;;5.22;3.78;;;;;;;21.69;59.05;101489.31;10471963;28;20068;-82